Terminal Aerodrome Forecast
Issued by NWS Denver/Boulder, CO

Home | Current Version | Previous Version | Text Only | Print | Product List | Glossary On
Versions: 1 2 3 4 5 6 7 8 9 10 11 12 13 14 15 16 17 18 19 20 21 22 23 24 25 26 27 28 29 30 31 32 33 34 35 36 37 38 39 40 41 42 43 44 45 46 47 48 49 50
643
FTUS45 KBOU 150028 AAA
TAFDEN
TAF AMD
KDEN 150028Z 1500/1606 28016G24KT P6SM FEW080 FEW120
     FM150100 34012G18KT P6SM FEW090 FEW150
     FM150300 33014KT P6SM FEW120 SCT200
     FM150700 20010KT P6SM FEW140
     FM151700 15008KT P6SM FEW220
     FM152000 12006KT P6SM FEW220
     FM160200 19008KT P6SM FEW140 FEW200=

USA.gov is the U.S. government's official web portal to all federal, state and local government web resources and services.